KMAO

Marion County Airport

Marion, South Carolina, USA
METAR KMAO 231615Z AUTO 15004KT 7SM SCT022 BKN028 BKN035 23/17 A3046 RMK AO2
Observed Flight Rules
Feb-23 @ 16:15 UTC (22 minutes ago) Marginal Visual Flight Rules
Wind Visibility Clouds
150° at 4 knots 7 miles
  • Scattered at 2,200' AGL
  • Broken at 2,800' AGL
  • Broken at 3,500' AGL
Temperatures Readings
Current 23°C / 73°F
Dewpoint 17°C / 63°F
Humidity 69%
Altimeter 30.46" Hg
Pressure 1031 hPa
Elevation 28
METAR KMAO 231615Z AUTO 15004KT 7SM SCT022 BKN028 BKN035 23/17 A3046 RMK AO2
Observed Flight Rules
Feb-23 @ 16:15 UTC
(22 minutes ago)
MVFR
Wind Visibility
150° at 4 knots 7 miles
Clouds
  • Scattered at 2,200' AGL
  • Broken at 2,800' AGL
  • Broken at 3,500' AGL
Temperature Dewpoint
23°C / 73°F 17°C / 63°F
Humidity Altimeter Pressure
69% 30.46" Hg 1031 hPa